M I D A S
Marine Information and Data Acquisition System
Tripno 1075 of the Zeeleeuw from 2006-04-25 06:35:23 to 2006-04-25 15:41:12
Back to CruiseResearch ActivitiesStationsMapUnderway DataData graphs

EquipmentUnitsComments
TimeDGPSUTC
LatitudeDGPSDM.mWGS84
LongitudeDGPSDM.mWGS84
SpeedMeteo Stationm/sRelative wind speed
DirectionMeteo StationdegRelative wind direction
TemperatureMeteo Stationdeg CelciusAir temperature
PressureMeteo StationPaAtmospheric pressure
HumidityMeteo Station%Relative humidity
Missing or incorrect values are displayed as -999
Metereological data collected by the RV Zeeleeuw from 2006-04-25 06:35:04 to 2006-04-25 15:53:21
Time Latitude Longitude Speed Direction Temperature Pressure Humidity
2006-04-25 06:36 51°13.614 2°56.043 -999 160 10.6 101580 94
2006-04-25 06:37 51°13.639 2°55.933 -999 161 10.7 101580 94
2006-04-25 06:38 51°13.681 2°55.82 -999 150 10.7 101580 94
2006-04-25 06:39 51°13.707 2°55.743 -999 173 10.8 101580 94
2006-04-25 06:40 51°13.719 2°55.76 -999 236 10.8 101590 93
2006-04-25 06:41 51°13.699 2°55.745 -999 226 10.9 101600 93
2006-04-25 06:42 51°13.714 2°55.733 -999 278 10.8 101610 93
2006-04-25 06:43 51°13.785 2°55.674 -999 291 10.9 101590 93
2006-04-25 06:44 51°13.882 2°55.599 -999 313 10.9 101580 92
2006-04-25 06:45 51°13.987 2°55.523 -999 29 10.8 101580 92
2006-04-25 06:46 51°14.098 2°55.446 -999 333 10.8 101590 92
2006-04-25 06:47 51°14.208 2°55.347 -999 315 10.7 101590 92
2006-04-25 06:48 51°14.301 2°55.197 -999 326 10.6 101570 93
2006-04-25 06:49 51°14.398 2°55.023 -999 327 10.3 101550 93
2006-04-25 06:50 51°14.486 2°54.802 -999 340 10 101560 93
2006-04-25 06:51 51°14.476 2°54.506 -999 6 9.7 101550 95
2006-04-25 06:52 51°14.365 2°54.203 -999 8 9.5 101560 95
2006-04-25 06:53 51°14.255 2°53.891 -999 10 9.2 101560 96
2006-04-25 06:54 51°14.141 2°53.577 -999 10 9.1 101570 97
2006-04-25 06:55 51°14.019 2°53.269 -999 16 9 101570 97
2006-04-25 06:56 51°13.908 2°52.953 -999 9 9 101580 98
2006-04-25 06:57 51°13.81 2°52.624 -999 11 8.9 101580 98
2006-04-25 06:58 51°13.697 2°52.308 -999 12 8.8 101590 98
2006-04-25 06:59 51°13.591 2°51.99 -999 12 8.8 101590 99
2006-04-25 07:00 51°13.486 2°51.672 -999 13 8.8 101580 99
2006-04-25 07:01 51°13.371 2°51.364 -999 16 8.8 101580 99
2006-04-25 07:02 51°13.263 2°51.051 -999 20 8.8 101580 100
2006-04-25 07:03 51°13.152 2°50.741 -999 21 8.8 101570 100
2006-04-25 07:04 51°13.038 2°50.433 -999 12 8.8 101590 100
2006-04-25 07:05 51°12.929 2°50.12 -999 18 8.9 101580 100
2006-04-25 07:06 51°12.821 2°49.805 -999 15 9 101570 100
2006-04-25 07:07 51°12.713 2°49.492 -999 13 9 101580 100
2006-04-25 07:08 51°12.606 2°49.179 -999 15 9 101570 100
2006-04-25 07:09 51°12.497 2°48.868 -999 15 8.9 101570 100
2006-04-25 07:10 51°12.389 2°48.558 -999 10 8.9 101580 100
2006-04-25 07:11 51°12.281 2°48.249 -999 15 8.8 101580 100
2006-04-25 07:12 51°12.182 2°47.933 -999 18 8.8 101570 100
2006-04-25 07:13 51°12.092 2°47.61 -999 15 8.8 101580 100
2006-04-25 07:14 51°12.007 2°47.284 -999 15 8.8 101570 100
2006-04-25 07:15 51°11.92 2°46.96 -999 17 8.8 101560 100
2006-04-25 07:16 51°11.848 2°46.625 -999 7 8.8 101570 100
2006-04-25 07:17 51°11.774 2°46.288 -999 8 8.8 101580 100
2006-04-25 07:18 51°11.702 2°45.95 -999 9 8.8 101580 100
2006-04-25 07:19 51°11.634 2°45.615 -999 11 8.9 101580 100
2006-04-25 07:20 51°11.568 2°45.28 -999 9 8.9 101570 100
2006-04-25 07:21 51°11.505 2°44.945 -999 9 8.9 101580 100
2006-04-25 07:22 51°11.442 2°44.607 -999 6 9 101580 100
2006-04-25 07:23 51°11.381 2°44.269 -999 10 9 101580 100
2006-04-25 07:24 51°11.317 2°43.931 -999 13 9 101570 100
2006-04-25 07:25 51°11.253 2°43.595 -999 1 9 101580 100
2006-04-25 07:26 51°11.19 2°43.258 -999 9 9.1 101570 100
2006-04-25 07:27 51°11.14 2°42.917 -999 3 9.1 101580 100
2006-04-25 07:28 51°11.116 2°42.57 -999 356 9.2 101570 100
2006-04-25 07:29 51°11.116 2°42.29 -999 354 9.2 101580 100
2006-04-25 07:30 51°11.109 2°42.122 -999 350 9.2 101580 100
2006-04-25 07:31 51°11.109 2°42.068 -999 323 9.2 101590 100
2006-04-25 07:32 51°11.11 2°42.073 -999 303 9.3 101600 100
2006-04-25 07:33 51°11.11 2°42.079 -999 295 9.3 101600 100
2006-04-25 07:34 51°11.111 2°42.088 -999 283 9.4 101610 100
2006-04-25 07:35 51°11.112 2°42.097 -999 274 9.4 101620 100
2006-04-25 07:36 51°11.112 2°42.107 -999 261 9.4 101620 100
2006-04-25 07:37 51°11.112 2°42.117 -999 254 9.4 101620 100
2006-04-25 07:38 51°11.115 2°42.129 -999 257 9.4 101620 100
2006-04-25 07:39 51°11.117 2°42.141 -999 261 9.4 101630 100
2006-04-25 07:40 51°11.12 2°42.153 -999 270 9.4 101630 100
2006-04-25 07:41 51°11.123 2°42.167 -999 265 9.4 101630 100
2006-04-25 07:42 51°11.125 2°42.183 -999 268 9.4 101640 100
2006-04-25 07:43 51°11.128 2°42.2 -999 273 9.4 101640 100
2006-04-25 07:44 51°11.131 2°42.218 -999 267 9.4 101650 100
2006-04-25 07:45 51°11.134 2°42.237 -999 271 9.4 101650 100
2006-04-25 07:46 51°11.138 2°42.258 -999 256 9.4 101640 100
2006-04-25 07:47 51°11.141 2°42.278 -999 265 9.5 101650 100
2006-04-25 07:48 51°11.156 2°42.293 -999 293 9.5 101650 100
2006-04-25 07:49 51°11.185 2°42.265 -999 338 9.5 101630 100
2006-04-25 07:50 51°11.183 2°42.211 -999 29 9.6 101630 100
2006-04-25 07:51 51°11.141 2°42.182 -999 50 9.5 101620 100
2006-04-25 07:52 51°11.099 2°42.13 -999 25 9.5 101620 100
2006-04-25 07:53 51°11.09 2°42.066 -999 349 9.5 101630 100
2006-04-25 07:54 51°11.095 2°42.075 -999 304 9.5 101630 100
2006-04-25 07:55 51°11.101 2°42.098 -999 270 9.5 101640 100
2006-04-25 07:56 51°11.107 2°42.123 -999 266 9.5 101640 100
2006-04-25 07:57 51°11.113 2°42.151 -999 264 9.4 101650 100
2006-04-25 07:58 51°11.118 2°42.179 -999 256 9.4 101650 100
2006-04-25 07:59 51°11.123 2°42.21 -999 263 9.4 101650 100
2006-04-25 08:00 51°11.128 2°42.241 -999 263 9.4 101650 100
2006-04-25 08:01 51°11.134 2°42.273 -999 269 9.4 101650 100
2006-04-25 08:02 51°11.14 2°42.307 -999 259 9.3 101650 100
2006-04-25 08:03 51°11.148 2°42.342 -999 268 9.3 101640 100
2006-04-25 08:04 51°11.156 2°42.375 -999 272 9.3 101640 100
2006-04-25 08:05 51°11.166 2°42.409 -999 271 9.3 101640 100
2006-04-25 08:06 51°11.175 2°42.444 -999 265 9.2 101620 100
2006-04-25 08:07 51°11.186 2°42.48 -999 270 9.2 101620 100
2006-04-25 08:08 51°11.198 2°42.515 -999 276 9.2 101630 100
2006-04-25 08:09 51°11.213 2°42.548 -999 288 9.1 101620 100
2006-04-25 08:10 51°11.235 2°42.565 -999 310 9 101620 100
2006-04-25 08:11 51°11.256 2°42.57 -999 332 9 101620 100
2006-04-25 08:12 51°11.273 2°42.568 -999 354 9 101620 100
2006-04-25 08:13 51°11.28 2°42.564 -999 11 8.9 101620 100
2006-04-25 08:14 51°11.282 2°42.578 -999 20 8.9 101630 100
2006-04-25 08:15 51°11.284 2°42.608 -999 44 8.9 101620 100
2006-04-25 08:16 51°11.28 2°42.642 -999 59 8.9 101620 100
2006-04-25 08:17 51°11.279 2°42.684 -999 77 8.9 101630 100
2006-04-25 08:18 51°11.277 2°42.732 -999 93 8.9 101620 100
2006-04-25 08:19 51°11.218 2°42.727 -999 32 8.8 101610 100
2006-04-25 08:20 51°11.168 2°42.557 -999 11 8.8 101610 100
2006-04-25 08:21 51°11.088 2°42.292 -999 15 8.9 101600 100
2006-04-25 08:22 51°11.006 2°42.014 -999 11 8.9 101600 100
2006-04-25 08:23 51°10.921 2°41.743 -999 12 8.8 101600 100
2006-04-25 08:24 51°10.835 2°41.469 -999 11 8.9 101600 100
2006-04-25 08:25 51°10.751 2°41.19 -999 10 8.9 101610 100
2006-04-25 08:26 51°10.675 2°40.916 -999 9 8.9 101600 100
2006-04-25 08:27 51°10.596 2°40.637 -999 9 8.9 101600 100
2006-04-25 08:28 51°10.522 2°40.362 -999 13 8.9 101590 100
2006-04-25 08:29 51°10.445 2°40.087 -999 10 8.9 101600 100
2006-04-25 08:30 51°10.378 2°39.809 -999 11 8.9 101600 100
2006-04-25 08:31 51°10.317 2°39.527 -999 11 8.9 101600 100
2006-04-25 08:32 51°10.257 2°39.249 -999 11 8.9 101600 100
2006-04-25 08:33 51°10.184 2°38.969 -999 8 8.9 101600 100
2006-04-25 08:34 51°10.124 2°38.685 -999 13 8.9 101610 100
2006-04-25 08:35 51°10.067 2°38.408 -999 3 8.9 101600 100
2006-04-25 08:36 51°10.017 2°38.114 -999 6 8.9 101620 100
2006-04-25 08:37 51°9.967 2°37.827 -999 3 8.9 101610 100
2006-04-25 08:38 51°9.919 2°37.542 -999 1 8.9 101620 100
2006-04-25 08:39 51°9.882 2°37.254 -999 5 8.9 101620 100
2006-04-25 08:40 51°9.859 2°36.969 -999 4 8.9 101600 100
2006-04-25 08:41 51°9.842 2°36.673 -999 358 8.9 101610 100
2006-04-25 08:42 51°9.837 2°36.384 -999 352 9 101600 100
2006-04-25 08:43 51°9.895 2°36.108 -999 338 8.9 101590 100
2006-04-25 08:44 51°10.049 2°35.906 -999 324 8.9 101630 100
2006-04-25 08:45 51°10.258 2°35.861 -999 292 8.9 101620 100
2006-04-25 08:46 51°10.465 2°36.032 -999 264 8.9 101650 100
2006-04-25 08:47 51°10.667 2°36.209 -999 288 8.9 101650 100
2006-04-25 08:48 51°10.88 2°36.376 -999 281 8.9 101650 100
2006-04-25 08:49 51°11.079 2°36.562 -999 280 8.9 101660 100
2006-04-25 08:50 51°11.29 2°36.74 -999 286 8.9 101650 100
2006-04-25 08:51 51°11.487 2°36.928 -999 264 8.9 101650 100
2006-04-25 08:52 51°11.695 2°37.109 -999 275 8.8 101650 100
2006-04-25 08:53 51°11.896 2°37.295 -999 268 8.8 101650 100
2006-04-25 08:54 51°12.096 2°37.484 -999 265 8.8 101650 100
2006-04-25 08:55 51°12.292 2°37.678 -999 262 8.9 101650 100
2006-04-25 08:56 51°12.491 2°37.868 -999 291 8.9 101650 100
2006-04-25 08:57 51°12.69 2°38.048 -999 279 8.9 101650 100
2006-04-25 08:58 51°12.892 2°38.233 -999 283 8.9 101650 100
2006-04-25 08:59 51°13.093 2°38.426 -999 279 8.9 101660 100
2006-04-25 09:00 51°13.291 2°38.63 -999 286 8.9 101660 100
2006-04-25 09:01 51°13.484 2°38.82 -999 265 8.8 101670 100
2006-04-25 09:02 51°13.685 2°38.998 -999 283 8.8 101660 100
2006-04-25 09:03 51°13.885 2°39.155 -999 281 8.8 101670 100
2006-04-25 09:04 51°14.098 2°39.193 -999 313 8.8 101650 100
2006-04-25 09:05 51°14.287 2°39.082 -999 228 8.7 101630 100
2006-04-25 09:06 51°14.451 2°38.895 -999 317 8.7 101620 100
2006-04-25 09:07 51°14.609 2°38.693 -999 320 8.7 101620 100
2006-04-25 09:08 51°14.768 2°38.489 -999 42 8.6 101600 100
2006-04-25 09:09 51°14.935 2°38.288 -999 38 8.6 101600 100
2006-04-25 09:10 51°15.093 2°38.093 -999 319 8.6 101610 100
2006-04-25 09:11 51°15.254 2°37.898 -999 324 8.6 101620 100
2006-04-25 09:12 51°15.415 2°37.724 -999 226 8.6 101610 100
2006-04-25 09:13 51°15.591 2°37.572 -999 228 8.5 101620 100
2006-04-25 09:14 51°15.77 2°37.422 -999 307 8.5 101620 100
2006-04-25 09:15 51°15.951 2°37.269 -999 314 8.4 101620 100
2006-04-25 09:16 51°16.142 2°37.118 -999 230 8.4 101630 100
2006-04-25 09:17 51°16.33 2°36.972 -999 311 8.4 101630 100
2006-04-25 09:18 51°16.501 2°36.857 -999 283 8.4 101650 100
2006-04-25 09:19 51°16.592 2°36.828 -999 230 8.3 101640 100
2006-04-25 09:20 51°16.625 2°36.849 -999 291 8.2 101640 100
2006-04-25 09:21 51°16.659 2°36.846 -999 340 8.2 101650 100
2006-04-25 09:22 51°16.669 2°36.836 -999 10 8.3 101660 100
2006-04-25 09:23 51°16.676 2°36.863 -999 39 8.3 101640 100
2006-04-25 09:24 51°16.691 2°36.917 -999 78 8.2 101650 100
2006-04-25 09:25 51°16.711 2°36.974 -999 107 8.2 101670 100
2006-04-25 09:26 51°16.732 2°37.029 -999 124 8.2 101670 100
2006-04-25 09:27 51°16.753 2°37.085 -999 118 8.2 101660 100
2006-04-25 09:28 51°16.776 2°37.14 -999 117 8.2 101660 100
2006-04-25 09:29 51°16.797 2°37.195 -999 117 8.3 101660 100
2006-04-25 09:30 51°16.819 2°37.249 -999 115 8.2 101660 100
2006-04-25 09:31 51°16.84 2°37.304 -999 104 8.2 101660 100
2006-04-25 09:32 51°16.845 2°37.364 -999 69 8.3 101650 100
2006-04-25 09:33 51°16.813 2°37.345 -999 347 8.3 101640 100
2006-04-25 09:34 51°16.89 2°37.13 -999 335 8.3 101630 100
2006-04-25 09:35 51°16.99 2°36.859 -999 328 8.2 101640 100
2006-04-25 09:36 51°17.12 2°36.602 -999 328 8.3 101630 100
2006-04-25 09:37 51°17.242 2°36.345 -999 329 8.3 101620 100
2006-04-25 09:38 51°17.352 2°36.074 -999 328 8.3 101630 100
2006-04-25 09:39 51°17.463 2°35.813 -999 321 8.3 101630 100
2006-04-25 09:40 51°17.572 2°35.558 -999 321 8.3 101630 100
2006-04-25 09:41 51°17.682 2°35.314 -999 324 8.4 101630 100
2006-04-25 09:42 51°17.794 2°35.068 -999 331 8.4 101640 100
2006-04-25 09:43 51°17.913 2°34.813 -999 320 8.4 101630 100
2006-04-25 09:44 51°18.034 2°34.57 -999 328 8.4 101650 100
2006-04-25 09:45 51°18.159 2°34.318 -999 330 8.5 101630 100
2006-04-25 09:46 51°18.279 2°34.076 -999 323 8.5 101610 100
2006-04-25 09:47 51°18.389 2°33.815 -999 330 8.5 101620 100
2006-04-25 09:48 51°18.495 2°33.558 -999 331 8.5 101630 100
2006-04-25 09:49 51°18.596 2°33.299 -999 334 8.5 101630 100
2006-04-25 09:50 51°18.704 2°33.031 -999 333 8.5 101630 100
2006-04-25 09:51 51°18.808 2°32.771 -999 335 8.5 101600 100
2006-04-25 09:52 51°18.916 2°32.504 -999 333 8.5 101620 100
2006-04-25 09:53 51°19.023 2°32.24 -999 331 8.5 101620 100
2006-04-25 09:54 51°19.132 2°31.974 -999 329 8.4 101630 100
2006-04-25 09:55 51°19.242 2°31.707 -999 329 8.4 101630 100
2006-04-25 09:56 51°19.35 2°31.429 -999 329 8.4 101640 100
2006-04-25 09:57 51°19.455 2°31.161 -999 331 8.4 101650 100
2006-04-25 09:58 51°19.556 2°30.888 -999 325 8.4 101640 100
2006-04-25 09:59 51°19.661 2°30.621 -999 322 8.4 101630 100
2006-04-25 10:00 51°19.784 2°30.377 -999 42 8.4 101640 100
2006-04-25 10:01 51°19.902 2°30.185 -999 39 8.4 101650 100
2006-04-25 10:02 51°19.964 2°30.094 -999 312 8.4 101650 100
2006-04-25 10:03 51°19.997 2°30.091 -999 320 8.4 101660 100
2006-04-25 10:04 51°20.019 2°30.123 -999 40 8.4 101670 100
2006-04-25 10:05 51°20.04 2°30.176 -999 306 8.4 101650 100
2006-04-25 10:06 51°20.061 2°30.245 -999 282 8.4 101660 100
2006-04-25 10:07 51°20.079 2°30.313 -999 278 8.4 101660 100
2006-04-25 10:08 51°20.097 2°30.383 -999 275 8.4 101660 100
2006-04-25 10:09 51°20.112 2°30.455 -999 275 8.4 101660 100
2006-04-25 10:10 51°20.164 2°30.512 -999 245 8.4 101670 100
2006-04-25 10:11 51°20.277 2°30.697 -999 217 8.3 101690 100
2006-04-25 10:12 51°20.448 2°30.949 -999 237 8.3 101680 100
2006-04-25 10:13 51°20.626 2°31.209 -999 242 8.4 101680 100
2006-04-25 10:14 51°20.808 2°31.47 -999 234 8.4 101670 100
2006-04-25 10:15 51°20.991 2°31.727 -999 237 8.4 101670 100
2006-04-25 10:16 51°21.171 2°31.981 -999 250 8.4 101670 100
2006-04-25 10:17 51°21.348 2°32.232 -999 223 8.4 101670 100
2006-04-25 10:18 51°21.503 2°32.517 -999 206 8.4 101670 100
2006-04-25 10:19 51°21.604 2°32.85 -999 135 8.4 101670 100
2006-04-25 10:20 51°21.682 2°33.202 -999 172 8.4 101670 100
2006-04-25 10:21 51°21.78 2°33.547 -999 182 8.3 101670 100
2006-04-25 10:22 51°21.844 2°33.905 -999 149 8.3 101670 100
2006-04-25 10:23 51°21.897 2°34.274 -999 130 8.4 101680 100
2006-04-25 10:24 51°21.954 2°34.641 -999 153 8.4 101680 100
2006-04-25 10:25 51°22.018 2°35.016 -999 141 8.4 101680 100
2006-04-25 10:26 51°22.082 2°35.387 -999 134 8.4 101680 100
2006-04-25 10:27 51°22.117 2°35.777 -999 106 8.4 101670 100
2006-04-25 10:28 51°22.136 2°36.166 -999 126 8.4 101680 100
2006-04-25 10:29 51°22.161 2°36.556 -999 135 8.4 101680 100
2006-04-25 10:30 51°22.18 2°36.945 -999 126 8.4 101680 100
2006-04-25 10:31 51°22.187 2°37.343 -999 98 8.5 101680 100
2006-04-25 10:32 51°22.217 2°37.728 -999 139 8.5 101680 100
2006-04-25 10:33 51°22.26 2°38.124 -999 128 8.5 101690 100
2006-04-25 10:34 51°22.295 2°38.511 -999 129 8.5 101690 100
2006-04-25 10:35 51°22.331 2°38.9 -999 136 8.6 101690 100
2006-04-25 10:36 51°22.38 2°39.288 -999 132 8.5 101700 100
2006-04-25 10:37 51°22.461 2°39.674 -999 152 8.5 101700 100
2006-04-25 10:38 51°22.552 2°40.048 -999 155 8.5 101700 100
2006-04-25 10:39 51°22.661 2°40.41 -999 166 8.5 101690 100
2006-04-25 10:40 51°22.767 2°40.764 -999 135 8.5 101700 100
2006-04-25 10:41 51°22.873 2°41.118 -999 175 8.6 101690 100
2006-04-25 10:42 51°23.023 2°41.43 -999 215 8.7 101690 100
2006-04-25 10:43 51°23.199 2°41.708 -999 227 8.7 101700 100
2006-04-25 10:44 51°23.376 2°41.988 -999 248 8.7 101700 100
2006-04-25 10:45 51°23.539 2°42.279 -999 197 8.7 101700 100
2006-04-25 10:46 51°23.694 2°42.598 -999 196 8.7 101710 100
2006-04-25 10:47 51°23.841 2°42.912 -999 197 8.8 101710 100
2006-04-25 10:48 51°23.991 2°43.22 -999 195 8.8 101700 100
2006-04-25 10:49 51°24.139 2°43.541 -999 181 9 101700 100
2006-04-25 10:50 51°24.288 2°43.853 -999 173 9.1 101700 100
2006-04-25 10:51 51°24.432 2°44.168 -999 211 9 101700 100
2006-04-25 10:52 51°24.578 2°44.488 -999 155 9 101700 100
2006-04-25 10:53 51°24.695 2°44.838 -999 153 9 101700 100
2006-04-25 10:54 51°24.811 2°45.189 -999 162 8.9 101700 100
2006-04-25 10:55 51°24.925 2°45.536 -999 160 8.9 101700 100
2006-04-25 10:56 51°25.036 2°45.889 -999 164 8.8 101700 100
2006-04-25 10:57 51°25.155 2°46.226 -999 160 8.8 101700 100
2006-04-25 10:58 51°25.276 2°46.555 -999 167 8.8 101700 100
2006-04-25 10:59 51°25.39 2°46.888 -999 174 8.8 101710 100
2006-04-25 11:00 51°25.51 2°47.22 -999 162 8.7 101700 100
2006-04-25 11:01 51°25.627 2°47.554 -999 157 8.8 101700 100
2006-04-25 11:02 51°25.75 2°47.893 -999 168 8.9 101700 100
2006-04-25 11:03 51°25.865 2°48.21 -999 168 8.8 101700 100
2006-04-25 11:04 51°25.947 2°48.417 -999 191 9.1 101700 100
2006-04-25 11:05 51°25.998 2°48.536 -999 225 9.5 101690 100
2006-04-25 11:06 51°26.004 2°48.582 -999 219 9.2 101690 100
2006-04-25 11:07 51°26.023 2°48.635 -999 227 9 101690 100
2006-04-25 11:08 51°26.049 2°48.696 -999 233 9 101680 100
2006-04-25 11:09 51°26.08 2°48.756 -999 252 8.9 101680 100
2006-04-25 11:10 51°26.112 2°48.81 -999 263 8.9 101670 100
2006-04-25 11:11 51°26.142 2°48.864 -999 261 8.8 101680 100
2006-04-25 11:12 51°26.174 2°48.919 -999 273 8.9 101680 100
2006-04-25 11:13 51°26.204 2°48.973 -999 286 8.9 101670 100
2006-04-25 11:14 51°26.235 2°49.03 -999 281 8.9 101680 100
2006-04-25 11:15 51°26.294 2°49.06 -999 272 8.9 101680 100
2006-04-25 11:16 51°26.424 2°49.166 -999 195 8.9 101690 100
2006-04-25 11:17 51°26.524 2°49.489 -999 163 8.9 101710 100
2006-04-25 11:18 51°26.611 2°49.858 -999 137 8.8 101710 100
2006-04-25 11:19 51°26.686 2°50.243 -999 128 8.8 101710 100
2006-04-25 11:20 51°26.751 2°50.633 -999 132 8.8 101710 100
2006-04-25 11:21 51°26.814 2°51.022 -999 115 8.8 101710 100
2006-04-25 11:22 51°26.883 2°51.405 -999 136 8.8 101710 100
2006-04-25 11:23 51°26.96 2°51.781 -999 124 8.8 101700 100
2006-04-25 11:24 51°27.03 2°52.161 -999 135 8.8 101700 100
2006-04-25 11:25 51°27.097 2°52.541 -999 142 8.8 101700 100
2006-04-25 11:26 51°27.152 2°52.926 -999 124 8.8 101700 100
2006-04-25 11:27 51°27.201 2°53.31 -999 130 8.8 101700 100
2006-04-25 11:28 51°27.252 2°53.695 -999 130 8.8 101700 100
2006-04-25 11:29 51°27.297 2°54.08 -999 124 8.8 101700 100
2006-04-25 11:30 51°27.34 2°54.471 -999 130 8.9 101700 100
2006-04-25 11:31 51°27.378 2°54.859 -999 124 8.8 101700 100
2006-04-25 11:32 51°27.43 2°55.246 -999 134 8.8 101690 100
2006-04-25 11:33 51°27.484 2°55.629 -999 129 8.9 101690 100
2006-04-25 11:34 51°27.537 2°56.011 -999 116 8.9 101690 100
2006-04-25 11:35 51°27.586 2°56.399 -999 106 8.9 101690 100
2006-04-25 11:36 51°27.628 2°56.789 -999 113 8.9 101690 100
2006-04-25 11:37 51°27.673 2°57.175 -999 120 8.9 101690 100
2006-04-25 11:38 51°27.72 2°57.564 -999 102 8.9 101690 100
2006-04-25 11:39 51°27.763 2°57.95 -999 116 8.9 101700 100
2006-04-25 11:40 51°27.81 2°58.333 -999 121 8.9 101700 100
2006-04-25 11:41 51°27.85 2°58.716 -999 109 8.9 101700 100
2006-04-25 11:42 51°27.891 2°59.088 -999 126 8.9 101700 100
2006-04-25 11:43 51°27.926 2°59.456 -999 117 8.9 101700 100
2006-04-25 11:44 51°27.957 2°59.827 -999 110 8.8 101700 100
2006-04-25 11:45 51°27.986 3°0.203 -999 132 8.8 101710 100
2006-04-25 11:46 51°28.019 3°0.571 -999 118 8.8 101710 100
2006-04-25 11:47 51°28.053 3°0.942 -999 112 8.8 101710 100
2006-04-25 11:48 51°28.056 3°1.313 -999 108 8.8 101710 100
2006-04-25 11:49 51°28.05 3°1.688 -999 118 8.8 101710 100
2006-04-25 11:50 51°28.07 3°2.067 -999 114 8.8 101710 100
2006-04-25 11:51 51°28.101 3°2.448 -999 123 8.9 101710 100
2006-04-25 11:52 51°28.132 3°2.828 -999 119 8.9 101710 100
2006-04-25 11:53 51°28.179 3°3.14 -999 168 8.9 101720 100
2006-04-25 11:54 51°28.241 3°3.326 -999 177 8.9 101710 100
2006-04-25 11:55 51°28.287 3°3.429 -999 210 9.3 101720 100
2006-04-25 11:56 51°28.311 3°3.477 -999 225 9.1 101720 100
2006-04-25 11:57 51°28.34 3°3.528 -999 244 9 101720 100
2006-04-25 11:58 51°28.372 3°3.569 -999 261 9 101720 100
2006-04-25 11:59 51°28.4 3°3.606 -999 266 9 101720 100
2006-04-25 12:00 51°28.426 3°3.642 -999 269 8.9 101730 100
2006-04-25 12:01 51°28.452 3°3.683 -999 272 8.9 101730 100
2006-04-25 12:02 51°28.477 3°3.723 -999 271 8.9 101720 100
2006-04-25 12:03 51°28.502 3°3.765 -999 264 8.9 101730 100
2006-04-25 12:04 51°28.526 3°3.808 -999 264 8.9 101730 100
2006-04-25 12:05 51°28.552 3°3.851 -999 261 8.9 101730 100
2006-04-25 12:06 51°28.616 3°3.923 -999 181 8.9 101740 100
2006-04-25 12:07 51°28.612 3°4.068 -999 111 9 101710 100
2006-04-25 12:08 51°28.506 3°4.304 -999 77 8.9 101710 100
2006-04-25 12:09 51°28.377 3°4.569 -999 89 8.9 101700 100
2006-04-25 12:10 51°28.24 3°4.824 -999 80 8.9 101700 100
2006-04-25 12:11 51°28.093 3°5.057 -999 86 8.9 101700 100
2006-04-25 12:12 51°27.946 3°5.29 -999 81 8.9 101710 100
2006-04-25 12:13 51°27.798 3°5.52 -999 78 8.9 101700 100
2006-04-25 12:14 51°27.652 3°5.751 -999 86 8.9 101700 100
2006-04-25 12:15 51°27.508 3°5.985 -999 80 8.9 101700 100
2006-04-25 12:16 51°27.36 3°6.214 -999 77 8.9 101710 100
2006-04-25 12:17 51°27.222 3°6.464 -999 96 8.9 101710 100
2006-04-25 12:18 51°27.094 3°6.726 -999 93 8.9 101710 100
2006-04-25 12:19 51°26.967 3°6.993 -999 96 8.9 101710 100
2006-04-25 12:20 51°26.845 3°7.263 -999 104 8.9 101710 100
2006-04-25 12:21 51°26.728 3°7.543 -999 101 8.9 101710 100
2006-04-25 12:22 51°26.613 3°7.827 -999 107 8.9 101720 100
2006-04-25 12:23 51°26.523 3°8.066 -999 122 8.9 101720 100
2006-04-25 12:24 51°26.48 3°8.188 -999 129 8.9 101720 100
2006-04-25 12:25 51°26.478 3°8.282 -999 172 8.9 101730 100
2006-04-25 12:26 51°26.494 3°8.31 -999 203 9.3 101740 100
2006-04-25 12:27 51°26.515 3°8.343 -999 198 9.1 101740 100
2006-04-25 12:28 51°26.542 3°8.386 -999 220 9 101730 100
2006-04-25 12:29 51°26.573 3°8.432 -999 237 9 101740 100
2006-04-25 12:30 51°26.604 3°8.469 -999 250 9 101750 100
2006-04-25 12:31 51°26.632 3°8.499 -999 263 9.1 101740 100
2006-04-25 12:32 51°26.679 3°8.539 -999 234 9.1 101730 100
2006-04-25 12:33 51°26.698 3°8.667 -999 129 9.2 101730 100
2006-04-25 12:34 51°26.644 3°8.85 -999 100 9.2 101720 100
2006-04-25 12:35 51°26.538 3°9.131 -999 99 9.2 101720 100
2006-04-25 12:36 51°26.424 3°9.413 -999 102 9.2 101720 100
2006-04-25 12:37 51°26.3 3°9.683 -999 97 9.2 101720 100
2006-04-25 12:38 51°26.178 3°9.954 -999 102 9.2 101720 100
2006-04-25 12:39 51°26.054 3°10.224 -999 91 9.2 101720 100
2006-04-25 12:40 51°25.93 3°10.493 -999 83 9.3 101730 100
2006-04-25 12:41 51°25.806 3°10.76 -999 85 9.3 101720 100
2006-04-25 12:42 51°25.683 3°11.026 -999 86 9.3 101720 100
2006-04-25 12:43 51°25.571 3°11.31 -999 91 9.3 101730 100
2006-04-25 12:44 51°25.472 3°11.612 -999 94 9.3 101730 100
2006-04-25 12:45 51°25.422 3°11.949 -999 108 9.3 101740 100
2006-04-25 12:46 51°25.391 3°12.297 -999 114 9.5 101740 100
2006-04-25 12:47 51°25.392 3°12.656 -999 151 9.5 101750 100
2006-04-25 12:48 51°25.425 3°13.018 -999 140 9.6 101750 100
2006-04-25 12:49 51°25.453 3°13.371 -999 175 9.6 101740 100
2006-04-25 12:50 51°25.477 3°13.726 -999 155 9.6 101750 100
2006-04-25 12:51 51°25.498 3°14.074 -999 150 9.7 101750 100
2006-04-25 12:52 51°25.528 3°14.424 -999 171 9.8 101750 100
2006-04-25 12:53 51°25.565 3°14.773 -999 187 9.8 101750 100
2006-04-25 12:54 51°25.605 3°15.12 -999 143 9.8 101750 100
2006-04-25 12:55 51°25.648 3°15.465 -999 154 9.9 101750 100
2006-04-25 12:56 51°25.668 3°15.816 -999 163 10 101750 100
2006-04-25 12:57 51°25.691 3°16.168 -999 155 9.9 101750 100
2006-04-25 12:58 51°25.734 3°16.52 -999 216 10 101750 100
2006-04-25 12:59 51°25.767 3°16.874 -999 198 10 101750 100
2006-04-25 13:00 51°25.802 3°17.227 -999 148 10.1 101750 100
2006-04-25 13:01 51°25.831 3°17.552 -999 193 10.1 101750 100
2006-04-25 13:02 51°25.915 3°17.666 -999 296 10.1 101740 100
2006-04-25 13:03 51°25.977 3°17.61 -999 340 10.1 101730 99
2006-04-25 13:04 51°25.99 3°17.635 -999 310 10 101740 99
2006-04-25 13:05 51°25.999 3°17.655 -999 286 10 101730 99
2006-04-25 13:06 51°26.008 3°17.67 -999 269 10 101740 99
2006-04-25 13:07 51°26.018 3°17.681 -999 259 9.9 101740 99
2006-04-25 13:08 51°26.034 3°17.693 -999 261 9.9 101740 99
2006-04-25 13:09 51°26.09 3°17.629 -999 349 9.9 101730 99
2006-04-25 13:10 51°26.036 3°17.501 -999 44 9.9 101710 99
2006-04-25 13:11 51°25.906 3°17.42 -999 35 9.9 101720 99
2006-04-25 13:12 51°25.77 3°17.243 -999 21 9.9 101710 99
2006-04-25 13:13 51°25.612 3°17.041 -999 27 9.9 101700 99
2006-04-25 13:14 51°25.447 3°16.85 -999 25 10 101700 99
2006-04-25 13:15 51°25.282 3°16.652 -999 24 10.1 101700 99
2006-04-25 13:16 51°25.114 3°16.466 -999 26 10.1 101700 98
2006-04-25 13:17 51°24.95 3°16.273 -999 27 10.2 101710 98
2006-04-25 13:18 51°24.783 3°16.083 -999 27 10.2 101710 98
2006-04-25 13:19 51°24.619 3°15.882 -999 22 10.3 101710 98
2006-04-25 13:20 51°24.455 3°15.676 -999 27 10.3 101710 98
2006-04-25 13:21 51°24.289 3°15.475 -999 25 10.3 101710 98
2006-04-25 13:22 51°24.125 3°15.277 -999 32 10.3 101690 98
2006-04-25 13:23 51°23.962 3°15.075 -999 29 10.3 101700 98
2006-04-25 13:24 51°23.799 3°14.871 -999 32 10.3 101700 97
2006-04-25 13:25 51°23.635 3°14.667 -999 27 10.3 101700 97
2006-04-25 13:26 51°23.474 3°14.455 -999 28 10.3 101700 97
2006-04-25 13:27 51°23.312 3°14.251 -999 25 10.3 101700 97
2006-04-25 13:28 51°23.152 3°14.042 -999 21 10.3 101690 97
2006-04-25 13:29 51°22.993 3°13.828 -999 23 10.4 101710 97
2006-04-25 13:30 51°22.838 3°13.604 -999 18 10.4 101720 97
2006-04-25 13:31 51°22.698 3°13.404 -999 19 10.4 101720 97
2006-04-25 13:32 51°22.625 3°13.277 -999 9 10.4 101730 97
2006-04-25 13:33 51°22.614 3°13.238 -999 307 10.5 101740 97
2006-04-25 13:34 51°22.616 3°13.247 -999 285 10.5 101730 97
2006-04-25 13:35 51°22.619 3°13.257 -999 273 10.6 101730 97
2006-04-25 13:36 51°22.622 3°13.268 -999 267 10.6 101730 96
2006-04-25 13:37 51°22.625 3°13.278 -999 267 10.5 101740 96
2006-04-25 13:38 51°22.628 3°13.29 -999 262 10.6 101740 96
2006-04-25 13:39 51°22.632 3°13.302 -999 266 10.5 101730 96
2006-04-25 13:40 51°22.635 3°13.314 -999 258 10.5 101730 96
2006-04-25 13:41 51°22.637 3°13.326 -999 257 10.5 101740 96
2006-04-25 13:42 51°22.639 3°13.338 -999 260 10.5 101740 96
2006-04-25 13:43 51°22.641 3°13.35 -999 264 10.4 101740 96
2006-04-25 13:44 51°22.647 3°13.358 -999 275 10.5 101740 96
2006-04-25 13:45 51°22.686 3°13.295 -999 334 10.5 101730 96
2006-04-25 13:46 51°22.67 3°13.086 -999 353 10.5 101730 96
2006-04-25 13:47 51°22.674 3°12.769 -999 354 10.5 101720 96
2006-04-25 13:48 51°22.69 3°12.441 -999 353 10.5 101720 96
2006-04-25 13:49 51°22.632 3°12.123 -999 -999 10.6 101720 96
2006-04-25 13:50 51°22.569 3°11.798 -999 3 10.6 101730 96
2006-04-25 13:51 51°22.517 3°11.469 -999 356 10.5 101730 95
2006-04-25 13:52 51°22.503 3°11.124 -999 3 10.6 101720 95
2006-04-25 13:53 51°22.49 3°10.775 -999 1 10.6 101720 95
2006-04-25 13:54 51°22.475 3°10.423 -999 359 10.6 101720 94
2006-04-25 13:55 51°22.45 3°10.074 -999 359 10.7 101720 94
2006-04-25 13:56 51°22.43 3°9.726 -999 359 10.7 101720 94
2006-04-25 13:57 51°22.385 3°9.395 -999 11 10.6 101710 94
2006-04-25 13:58 51°22.309 3°9.075 -999 7 10.6 101710 94
2006-04-25 13:59 51°22.239 3°8.751 -999 10 10.6 101720 93
2006-04-25 14:00 51°22.161 3°8.43 -999 12 10.6 101720 93
2006-04-25 14:01 51°22.092 3°8.1 -999 9 10.6 101720 93
2006-04-25 14:02 51°22.033 3°7.765 -999 11 10.6 101720 93
2006-04-25 14:03 51°21.995 3°7.422 -999 2 10.6 101710 93
2006-04-25 14:04 51°21.977 3°7.077 -999 4 10.6 101720 93
2006-04-25 14:05 51°21.944 3°6.74 -999 2 10.6 101710 93
2006-04-25 14:06 51°21.905 3°6.405 -999 7 10.6 101710 93
2006-04-25 14:07 51°21.828 3°6.087 -999 8 10.6 101720 93
2006-04-25 14:08 51°21.763 3°5.76 -999 10 10.6 101720 93
2006-04-25 14:09 51°21.686 3°5.442 -999 7 10.6 101720 93
2006-04-25 14:10 51°21.613 3°5.118 -999 5 10.7 101720 92
2006-04-25 14:11 51°21.541 3°4.796 -999 7 10.7 101710 92
2006-04-25 14:12 51°21.472 3°4.471 -999 6 10.7 101720 92
2006-04-25 14:13 51°21.404 3°4.144 -999 2 10.8 101710 91
2006-04-25 14:14 51°21.33 3°3.823 -999 6 10.8 101710 91
2006-04-25 14:15 51°21.254 3°3.503 -999 6 10.9 101720 90
2006-04-25 14:16 51°21.165 3°3.188 -999 5 10.9 101710 90
2006-04-25 14:17 51°21.087 3°2.867 -999 360 10.9 101720 89
2006-04-25 14:18 51°20.998 3°2.55 -999 2 10.9 101730 89
2006-04-25 14:19 51°20.919 3°2.224 -999 -999 10.9 101740 89
2006-04-25 14:20 51°20.838 3°1.902 -999 7 10.9 101730 90
2006-04-25 14:21 51°20.764 3°1.577 -999 2 10.9 101720 89
2006-04-25 14:22 51°20.689 3°1.251 -999 5 11 101730 89
2006-04-25 14:23 51°20.622 3°0.92 -999 7 10.9 101730 89
2006-04-25 14:24 51°20.546 3°0.594 -999 2 10.9 101720 89
2006-04-25 14:25 51°20.473 3°0.277 -999 360 11 101730 89
2006-04-25 14:26 51°20.398 2°59.947 -999 7 11 101730 89
2006-04-25 14:27 51°20.323 2°59.619 -999 358 11 101730 89
2006-04-25 14:28 51°20.25 2°59.29 -999 359 11 101720 89
2006-04-25 14:29 51°20.186 2°58.958 -999 -999 11 101720 89
2006-04-25 14:30 51°20.128 2°58.623 -999 3 11 101730 89
2006-04-25 14:31 51°20.07 2°58.284 -999 358 11 101720 88
2006-04-25 14:32 51°20.001 2°57.948 -999 1 11 101720 88
2006-04-25 14:33 51°19.944 2°57.61 -999 359 11 101710 88
2006-04-25 14:34 51°19.879 2°57.277 -999 358 11 101710 88
2006-04-25 14:35 51°19.813 2°56.943 -999 1 11 101700 88
2006-04-25 14:36 51°19.753 2°56.606 -999 5 11 101720 88
2006-04-25 14:37 51°19.681 2°56.273 -999 -999 11 101710 88
2006-04-25 14:38 51°19.603 2°55.946 -999 3 11 101720 88
2006-04-25 14:39 51°19.537 2°55.609 -999 360 11 101720 88
2006-04-25 14:40 51°19.471 2°55.273 -999 1 11 101710 88
2006-04-25 14:41 51°19.409 2°54.936 -999 358 10.9 101730 88
2006-04-25 14:42 51°19.344 2°54.601 -999 360 10.9 101730 88
2006-04-25 14:43 51°19.272 2°54.27 -999 3 10.9 101720 89
2006-04-25 14:44 51°19.211 2°53.932 -999 359 10.9 101720 89
2006-04-25 14:45 51°19.148 2°53.594 -999 359 10.9 101730 89
2006-04-25 14:46 51°19.07 2°53.267 -999 7 10.9 101730 89
2006-04-25 14:47 51°19 2°52.934 -999 7 10.9 101730 89
2006-04-25 14:48 51°18.922 2°52.604 -999 1 10.9 101730 89
2006-04-25 14:49 51°18.854 2°52.269 -999 360 10.9 101740 89
2006-04-25 14:50 51°18.792 2°51.934 -999 3 10.9 101740 89
2006-04-25 14:51 51°18.691 2°51.624 -999 10 10.9 101730 89
2006-04-25 14:52 51°18.582 2°51.32 -999 11 10.9 101730 89
2006-04-25 14:53 51°18.488 2°51.06 -999 4 10.9 101720 89
2006-04-25 14:54 51°18.469 2°50.967 -999 15 10.8 101750 89
2006-04-25 14:55 51°18.474 2°50.966 -999 33 10.8 101750 89
2006-04-25 14:56 51°18.481 2°50.97 -999 59 10.8 101750 90
2006-04-25 14:57 51°18.49 2°50.973 -999 74 10.7 101760 90
2006-04-25 14:58 51°18.499 2°50.971 -999 96 10.7 101760 90
2006-04-25 14:59 51°18.506 2°50.966 -999 113 10.7 101770 91
2006-04-25 15:00 51°18.511 2°50.962 -999 121 10.7 101770 91
2006-04-25 15:01 51°18.514 2°50.96 -999 118 10.7 101760 91
2006-04-25 15:02 51°18.516 2°50.959 -999 120 10.7 101760 91
2006-04-25 15:03 51°18.516 2°50.958 -999 113 10.7 101760 92
2006-04-25 15:04 51°18.516 2°50.957 -999 101 10.7 101760 92
2006-04-25 15:05 51°18.514 2°50.955 -999 104 10.6 101760 92
2006-04-25 15:06 51°18.512 2°50.954 -999 100 10.6 101760 92
2006-04-25 15:07 51°18.501 2°50.957 -999 97 10.6 101760 92
2006-04-25 15:08 51°18.397 2°51.045 -999 80 10.6 101750 93
2006-04-25 15:09 51°18.228 2°51.208 -999 78 10.6 101740 93
2006-04-25 15:10 51°18.058 2°51.399 -999 76 10.6 101750 93
2006-04-25 15:11 51°17.885 2°51.584 -999 76 10.6 101750 93
2006-04-25 15:12 51°17.71 2°51.766 -999 72 10.6 101760 93
2006-04-25 15:13 51°17.525 2°51.93 -999 67 10.6 101750 93
2006-04-25 15:14 51°17.334 2°52.08 -999 59 10.6 101750 93
2006-04-25 15:15 51°17.144 2°52.232 -999 64 10.7 101750 93
2006-04-25 15:16 51°16.962 2°52.402 -999 75 10.7 101760 93
2006-04-25 15:17 51°16.82 2°52.634 -999 96 10.7 101760 94
2006-04-25 15:18 51°16.743 2°52.932 -999 86 10.7 101780 93
2006-04-25 15:19 51°16.63 2°53.211 -999 93 10.7 101770 93
2006-04-25 15:20 51°16.547 2°53.511 -999 114 10.8 101770 93
2006-04-25 15:21 51°16.451 2°53.802 -999 85 10.8 101770 93
2006-04-25 15:22 51°16.368 2°54.06 -999 116 10.8 101770 93
2006-04-25 15:23 51°16.302 2°54.19 -999 102 10.8 101770 93
2006-04-25 15:24 51°16.248 2°54.261 -999 113 10.9 101770 93
2006-04-25 15:25 51°16.242 2°54.253 -999 120 10.9 101770 93
2006-04-25 15:26 51°16.239 2°54.243 -999 124 10.9 101770 93
2006-04-25 15:27 51°16.235 2°54.236 -999 114 10.9 101780 93
2006-04-25 15:28 51°16.229 2°54.228 -999 117 10.9 101780 93
2006-04-25 15:29 51°16.223 2°54.22 -999 106 10.9 101780 93
2006-04-25 15:30 51°16.205 2°54.218 -999 86 10.9 101780 94
2006-04-25 15:31 51°16.089 2°54.233 -999 54 10.9 101760 94
2006-04-25 15:32 51°15.901 2°54.248 -999 51 10.9 101760 94
2006-04-25 15:33 51°15.704 2°54.288 -999 63 10.9 101760 94
2006-04-25 15:34 51°15.507 2°54.335 -999 61 10.9 101760 94
2006-04-25 15:35 51°15.312 2°54.382 -999 52 10.9 101770 94
2006-04-25 15:36 51°15.118 2°54.437 -999 58 10.9 101760 94
2006-04-25 15:37 51°14.93 2°54.495 -999 63 11 101770 94
2006-04-25 15:38 51°14.749 2°54.57 -999 80 11 101770 94
2006-04-25 15:39 51°14.589 2°54.707 -999 79 11 101770 94
2006-04-25 15:40 51°14.45 2°54.882 -999 84 11 101780 94
2006-04-25 15:41 51°14.346 2°55.089 -999 80 11 101790 94
2006-04-25 15:42 51°14.253 2°55.285 -999 88 11.1 101800 94
2006-04-25 15:43 51°14.158 2°55.392 -999 80 11.2 101800 95
2006-04-25 15:44 51°14.062 2°55.458 -999 50 11.3 101800 94
2006-04-25 15:45 51°13.98 2°55.517 -999 100 11.5 101800 92
2006-04-25 15:46 51°13.905 2°55.572 -999 64 11.7 101800 91
2006-04-25 15:47 51°13.834 2°55.625 -999 2 11.9 101800 89
2006-04-25 15:48 51°13.765 2°55.695 -999 66 12.1 101800 87
2006-04-25 15:49 51°13.712 2°55.779 -999 120 12.2 101800 85
2006-04-25 15:50 51°13.673 2°55.861 -999 99 12.2 101800 84
2006-04-25 15:51 51°13.64 2°55.938 -999 156 12.4 101800 84
2006-04-25 15:52 51°13.617 2°56.017 -999 140 12.4 101790 83
2006-04-25 15:53 51°13.607 2°56.08 -999 138 12.4 101790 82